Terminal Aerodrome Forecast
Issued by NWS

Home | Current Version | Previous Version | Text Only | Print | Product List | Glossary On
Versions: 1 2 3 4 5 6 7 8 9 10 11 12 13 14
000
FTUS44 KSJT 180500
TAFJCT
TAF
KJCT 180520Z 1806/1906 VRB03KT P6SM BKN100
     FM181100 13004KT P6SM BKN025
     FM181500 12008KT P6SM SCT050
     FM182100 12008KT P6SM VCSH BKN050
     FM190300 12005KT P6SM BKN050=

USA.gov is the U.S. government's official web portal to all federal, state and local government web resources and services.